Time;durP1;ratioP1;P1;durP2;ratioP2;P2;SDS_P1;SDS_P2;PMS_P1;PMS_P2;Temp;Humidity;BMP_temperature;BMP_pressure;BME280_temperature;BME280_humidity;BME280_pressure;Samples;Min_cycle;Max_cycle;Signal;HPM_P1;HPM_P2
2020/12/04 00:01:32;;;;;;;17.53;10.97;;;2.20;99.90;;;;;;5036476;28;20181;-84
2020/12/04 00:03:58;;;;;;;15.50;12.00;;;1.80;99.90;;;;;;5034996;28;20180;-84
2020/12/04 00:06:24;;;;;;;15.97;12.00;;;1.90;99.90;;;;;;5034762;28;20192;-85
2020/12/04 00:08:49;;;;;;;20.60;12.47;;;2.10;99.90;;;;;;5035434;28;20239;-84
2020/12/04 00:11:15;;;;;;;13.73;11.00;;;1.80;99.90;;;;;;5034053;28;20177;-85
2020/12/04 00:13:40;;;;;;;15.30;12.27;;;1.80;99.90;;;;;;5033807;28;20216;-84
2020/12/04 00:16:06;;;;;;;17.70;12.57;;;2.10;99.90;;;;;;5033583;28;20306;-85
2020/12/04 00:18:31;;;;;;;14.57;10.67;;;1.90;99.90;;;;;;5035233;28;20179;-83
2020/12/04 00:20:57;;;;;;;13.33;10.30;;;2.10;99.90;;;;;;5033594;28;20656;-84
2020/12/04 00:23:22;;;;;;;14.50;11.70;;;1.90;99.90;;;;;;5033521;28;20533;-85
2020/12/04 00:25:48;;;;;;;20.30;13.53;;;2.20;99.90;;;;;;5033321;28;20294;-85
2020/12/04 00:28:14;;;;;;;14.73;11.60;;;2.20;99.90;;;;;;5034212;28;20177;-85
2020/12/04 00:30:39;;;;;;;13.63;10.20;;;1.70;99.90;;;;;;5032981;28;20192;-85
2020/12/04 00:33:05;;;;;;;14.73;11.43;;;2.30;99.90;;;;;;5034228;28;20187;-84
2020/12/04 00:35:30;;;;;;;15.27;11.27;;;1.90;99.90;;;;;;5032851;28;20254;-84
2020/12/04 00:37:56;;;;;;;15.73;11.50;;;2.00;99.90;;;;;;5033230;28;20208;-83
2020/12/04 00:40:22;;;;;;;15.47;11.40;;;2.00;99.90;;;;;;5032700;28;20692;-85
2020/12/04 00:42:47;;;;;;;16.70;13.60;;;1.70;99.90;;;;;;5033216;28;20169;-84
2020/12/04 00:45:16;;;;;;;16.20;11.97;;;1.70;99.90;;;;;;5034753;28;20203;-84
2020/12/04 00:47:42;;;;;;;13.60;11.33;;;2.20;99.90;;;;;;5035466;28;20211;-84
2020/12/04 00:50:08;;;;;;;14.83;10.70;;;2.20;99.90;;;;;;5034526;28;20416;-84
2020/12/04 00:52:34;;;;;;;14.20;11.60;;;1.80;99.90;;;;;;5033921;28;20438;-84
2020/12/04 00:55:00;;;;;;;13.60;11.17;;;1.80;99.90;;;;;;5033546;28;20870;-84
2020/12/04 00:57:25;;;;;;;19.40;11.53;;;1.80;99.90;;;;;;5033834;28;20220;-83
2020/12/04 00:59:51;;;;;;;17.77;13.07;;;1.90;99.90;;;;;;5034154;28;20164;-84
2020/12/04 01:02:16;;;;;;;15.93;11.73;;;2.20;99.90;;;;;;5034046;28;20172;-83
2020/12/04 01:04:42;;;;;;;15.60;12.30;;;2.20;99.90;;;;;;5032653;28;20176;-85
2020/12/04 01:07:08;;;;;;;15.60;10.97;;;2.40;99.90;;;;;;5034392;28;20256;-84
2020/12/04 01:09:34;;;;;;;15.83;10.97;;;1.70;99.90;;;;;;5033460;28;20173;-84
2020/12/04 01:12:00;;;;;;;15.80;12.03;;;2.30;99.90;;;;;;5033389;28;20438;-83
2020/12/04 01:14:29;;;;;;;13.50;10.63;;;2.30;99.90;;;;;;5033510;28;20506;-84
2020/12/04 01:16:54;;;;;;;15.07;10.97;;;2.30;99.90;;;;;;5033323;28;20511;-83
2020/12/04 01:19:20;;;;;;;16.90;12.10;;;1.90;99.90;;;;;;5033435;28;20490;-84
2020/12/04 01:21:49;;;;;;;19.33;12.33;;;2.00;99.90;;;;;;5032135;28;20245;-84
2020/12/04 01:24:15;;;;;;;14.27;10.57;;;1.70;99.90;;;;;;5033400;28;20168;-83
2020/12/04 01:26:41;;;;;;;19.87;13.00;;;1.90;99.90;;;;;;5033507;28;20415;-84
2020/12/04 01:29:07;;;;;;;18.13;13.00;;;1.70;99.90;;;;;;5033458;28;20644;-84
2020/12/04 01:31:33;;;;;;;15.13;12.33;;;2.10;99.90;;;;;;5032427;28;20173;-83
2020/12/04 01:34:00;;;;;;;13.50;10.67;;;1.80;99.90;;;;;;5033737;28;20438;-84
2020/12/04 01:36:30;;;;;;;14.47;10.03;;;1.60;99.90;;;;;;5033736;28;20247;-84
2020/12/04 01:38:55;;;;;;;16.27;11.80;;;2.00;99.90;;;;;;5033992;28;20407;-83
2020/12/04 01:41:21;;;;;;;17.40;12.97;;;2.00;99.90;;;;;;5032323;28;20454;-83
2020/12/04 01:43:47;;;;;;;16.20;12.17;;;2.10;99.90;;;;;;5033495;28;20628;-83
2020/12/04 01:46:16;;;;;;;13.90;10.80;;;1.60;99.90;;;;;;5036930;28;20192;-82
2020/12/04 01:48:43;;;;;;;18.80;13.20;;;1.70;99.90;;;;;;5035875;28;20430;-84
2020/12/04 01:51:09;;;;;;;17.17;13.60;;;1.70;99.90;;;;;;5034709;28;20522;-84
2020/12/04 01:53:37;;;;;;;16.73;12.27;;;1.70;99.90;;;;;;5034731;28;20419;-84
2020/12/04 01:56:03;;;;;;;16.23;12.10;;;1.70;99.90;;;;;;5034136;28;20475;-84
2020/12/04 01:58:28;;;;;;;19.03;12.63;;;2.00;99.90;;;;;;5034015;28;20434;-83
2020/12/04 02:00:54;;;;;;;16.20;12.50;;;1.60;99.90;;;;;;5033615;28;20176;-83
2020/12/04 02:03:20;;;;;;;16.73;12.53;;;1.80;99.90;;;;;;5034060;28;20173;-84
2020/12/04 02:05:53;;;;;;;18.50;12.67;;;2.00;99.90;;;;;;5033022;28;20247;-83
2020/12/04 02:08:28;;;;;;;16.30;13.07;;;2.10;99.90;;;;;;5033983;28;20169;-84
2020/12/04 02:11:10;;;;;;;18.37;12.90;;;2.00;99.90;;;;;;5035833;28;20435;-83
2020/12/04 02:13:37;;;;;;;20.80;14.17;;;2.10;99.90;;;;;;5041071;28;20418;-84
2020/12/04 02:16:03;;;;;;;18.10;12.60;;;1.80;99.90;;;;;;5033604;28;20498;-84
2020/12/04 02:18:28;;;;;;;18.00;12.50;;;1.80;99.90;;;;;;5033468;28;20427;-84
2020/12/04 02:21:03;;;;;;;16.63;11.93;;;1.80;99.90;;;;;;5033541;28;20177;-84
2020/12/04 02:23:30;;;;;;;19.97;12.87;;;1.80;99.90;;;;;;5037771;28;20259;-84
2020/12/04 02:25:57;;;;;;;16.30;11.77;;;1.80;99.90;;;;;;5036836;28;20985;-83
2020/12/04 02:28:37;;;;;;;15.33;12.40;;;1.90;99.90;;;;;;5038010;28;20447;-83
2020/12/04 02:31:03;;;;;;;17.83;14.87;;;2.20;99.90;;;;;;5039802;28;20434;-83
2020/12/04 02:33:29;;;;;;;17.97;13.33;;;1.80;99.90;;;;;;5041256;28;20414;-83
2020/12/04 02:35:55;;;;;;;17.00;14.33;;;2.20;99.90;;;;;;5038887;28;20494;-83
2020/12/04 02:38:22;;;;;;;15.60;13.10;;;1.90;99.90;;;;;;5037536;28;20506;-84
2020/12/04 02:40:47;;;;;;;17.00;13.03;;;2.20;99.90;;;;;;5035748;28;20435;-83
2020/12/04 02:43:13;;;;;;;20.23;13.50;;;1.80;99.90;;;;;;5036324;28;20414;-83
2020/12/04 02:45:39;;;;;;;18.10;14.00;;;1.80;99.90;;;;;;5035433;28;20509;-83
2020/12/04 02:48:04;;;;;;;18.70;13.03;;;1.90;99.90;;;;;;5036624;28;20222;-84
2020/12/04 02:50:30;;;;;;;29.97;19.07;;;1.90;99.90;;;;;;5036444;28;20223;-83
2020/12/04 02:52:55;;;;;;;19.23;14.40;;;2.00;99.90;;;;;;5035621;28;20652;-83
2020/12/04 02:55:21;;;;;;;17.87;13.57;;;2.00;99.90;;;;;;5035119;28;20204;-84
2020/12/04 02:57:46;;;;;;;16.07;12.80;;;2.20;99.90;;;;;;5035033;28;20223;-83
2020/12/04 03:00:12;;;;;;;17.83;12.77;;;1.80;99.90;;;;;;5036737;28;20532;-84
2020/12/04 03:02:38;;;;;;;18.77;12.20;;;1.80;99.90;;;;;;5035995;28;20180;-83
2020/12/04 03:05:04;;;;;;;16.80;14.27;;;2.20;99.90;;;;;;5036482;28;20172;-84
2020/12/04 03:07:29;;;;;;;16.20;12.00;;;2.20;99.90;;;;;;5036351;28;20169;-83
2020/12/04 03:09:55;;;;;;;14.43;12.40;;;1.90;99.90;;;;;;5038401;28;20422;-84
2020/12/04 03:12:20;;;;;;;16.37;12.50;;;1.70;99.90;;;;;;5040933;28;20190;-83
2020/12/04 03:14:46;;;;;;;17.30;12.73;;;1.80;99.90;;;;;;5039572;28;20238;-83
2020/12/04 03:17:12;;;;;;;16.27;12.00;;;2.40;99.90;;;;;;5037673;28;20181;-83
2020/12/04 03:19:37;;;;;;;16.43;12.70;;;1.70;99.90;;;;;;5037166;28;20169;-83
2020/12/04 03:22:03;;;;;;;16.93;12.80;;;1.90;99.90;;;;;;5037116;28;20434;-84
2020/12/04 03:24:33;;;;;;;15.77;12.53;;;1.90;99.90;;;;;;5036611;28;20564;-84
2020/12/04 03:26:59;;;;;;;16.97;11.67;;;2.20;99.90;;;;;;5037232;28;20256;-83
2020/12/04 03:29:24;;;;;;;18.57;12.63;;;2.20;99.90;;;;;;5037578;28;20466;-84
2020/12/04 03:31:50;;;;;;;16.50;12.17;;;1.80;99.90;;;;;;5036399;28;20431;-84
2020/12/04 03:34:15;;;;;;;18.07;12.60;;;1.90;99.90;;;;;;5037018;28;20204;-83
2020/12/04 03:36:41;;;;;;;15.23;12.53;;;1.90;99.90;;;;;;5035674;28;20209;-83
2020/12/04 03:39:06;;;;;;;19.93;14.87;;;2.10;99.90;;;;;;5037090;28;20654;-84
2020/12/04 03:41:32;;;;;;;16.30;12.50;;;2.20;99.90;;;;;;5037968;28;20164;-84
2020/12/04 03:43:58;;;;;;;14.90;12.70;;;2.40;99.90;;;;;;5040446;28;20193;-83
2020/12/04 03:46:23;;;;;;;14.90;11.77;;;2.10;99.90;;;;;;5037334;28;20184;-84
2020/12/04 03:48:49;;;;;;;14.13;11.20;;;2.00;99.90;;;;;;5035468;28;20180;-84
2020/12/04 03:51:14;;;;;;;16.40;12.83;;;2.10;99.90;;;;;;5036463;28;20173;-84
2020/12/04 03:53:40;;;;;;;16.73;12.10;;;2.10;99.90;;;;;;5035179;28;20195;-84
2020/12/04 03:56:05;;;;;;;13.20;10.20;;;2.10;99.90;;;;;;5034773;28;20275;-84
2020/12/04 03:58:31;;;;;;;15.90;12.83;;;2.10;99.90;;;;;;5034897;28;20172;-84
2020/12/04 04:00:57;;;;;;;14.57;11.90;;;2.20;99.90;;;;;;5033802;28;20267;-84
2020/12/04 04:03:22;;;;;;;14.93;12.60;;;2.20;99.90;;;;;;5034009;28;20180;-83
2020/12/04 04:05:48;;;;;;;17.60;11.43;;;2.10;99.90;;;;;;5033694;28;20189;-84
2020/12/04 04:08:14;;;;;;;17.20;12.83;;;2.10;99.90;;;;;;5035190;28;20533;-84
2020/12/04 04:10:39;;;;;;;15.80;12.37;;;2.10;99.90;;;;;;5035407;28;20540;-84
2020/12/04 04:13:05;;;;;;;14.20;11.03;;;2.00;99.90;;;;;;5035159;28;20231;-84
2020/12/04 04:15:30;;;;;;;13.57;11.20;;;2.50;99.90;;;;;;5035196;28;20258;-85
2020/12/04 04:17:59;;;;;;;15.90;12.63;;;2.10;99.90;;;;;;5035283;28;20173;-85
2020/12/04 04:20:26;;;;;;;13.97;12.30;;;2.30;99.90;;;;;;5034965;28;20211;-84
2020/12/04 04:22:51;;;;;;;15.43;10.87;;;1.90;99.90;;;;;;5034589;28;20515;-84
2020/12/04 04:25:17;;;;;;;11.83;10.63;;;2.50;99.90;;;;;;5034713;28;20840;-83
2020/12/04 04:27:42;;;;;;;14.57;10.13;;;2.00;99.90;;;;;;5034456;28;20600;-84
2020/12/04 04:30:08;;;;;;;12.37;9.50;;;2.10;99.90;;;;;;5033224;28;20180;-84
2020/12/04 04:32:35;;;;;;;10.77;9.50;;;2.50;99.90;;;;;;5034739;28;20177;-83
2020/12/04 04:35:00;;;;;;;13.30;9.23;;;2.10;99.90;;;;;;5032928;28;20498;-83
2020/12/04 04:37:26;;;;;;;11.13;8.60;;;2.60;99.90;;;;;;5034399;28;20431;-84
2020/12/04 04:39:51;;;;;;;10.70;9.43;;;2.40;99.90;;;;;;5036437;28;20227;-84
2020/12/04 04:42:18;;;;;;;11.27;8.60;;;2.40;99.90;;;;;;5036891;28;20200;-85
2020/12/04 04:44:44;;;;;;;11.30;8.10;;;2.90;99.90;;;;;;5034614;28;20180;-83
2020/12/04 04:47:18;;;;;;;11.47;7.30;;;2.60;99.90;;;;;;5033845;28;20431;-84
2020/12/04 04:49:50;;;;;;;11.97;8.90;;;3.00;99.90;;;;;;5034237;28;20420;-84
2020/12/04 04:52:16;;;;;;;12.23;9.80;;;3.30;99.90;;;;;;5036229;28;20450;-83
2020/12/04 04:54:45;;;;;;;8.47;7.57;;;2.90;99.90;;;;;;5033187;28;20423;-82
2020/12/04 04:57:11;;;;;;;9.57;7.13;;;3.40;99.90;;;;;;5033088;28;20498;-83
2020/12/04 04:59:37;;;;;;;6.87;5.00;;;3.20;99.90;;;;;;5033132;28;20422;-82
2020/12/04 05:02:03;;;;;;;9.60;8.60;;;3.60;99.90;;;;;;5034127;28;20427;-83
2020/12/04 05:05:04;;;;;;;11.17;8.27;;;3.20;99.90;;;;;;5034393;28;20403;-86
2020/12/04 05:07:30;;;;;;;12.17;8.77;;;3.60;99.90;;;;;;5034222;28;20244;-83
2020/12/04 05:10:28;;;;;;;11.20;8.40;;;3.20;99.90;;;;;;5033884;28;20416;-85
2020/12/04 05:13:01;;;;;;;13.03;9.87;;;3.10;99.90;;;;;;5012382;28;20415;-80
2020/12/04 05:15:29;;;;;;;9.50;7.00;;;3.10;99.90;;;;;;5033825;28;20473;-83
2020/12/04 05:18:15;;;;;;;11.87;8.67;;;3.10;99.90;;;;;;5032833;28;20477;-83
2020/12/04 05:20:59;;;;;;;9.37;7.97;;;3.10;99.90;;;;;;5033903;28;20435;-84
2020/12/04 05:23:25;;;;;;;8.70;7.40;;;3.20;99.90;;;;;;5034193;28;20407;-82
2020/12/04 05:25:52;;;;;;;8.10;7.10;;;3.00;99.90;;;;;;5033279;28;20510;-83
2020/12/04 05:28:20;;;;;;;7.80;7.00;;;3.40;99.90;;;;;;5034692;28;20443;-83
2020/12/04 05:31:04;;;;;;;8.47;7.63;;;3.10;99.90;;;;;;5032729;28;20423;-84
2020/12/04 05:33:30;;;;;;;9.20;7.23;;;3.60;99.90;;;;;;5032794;28;20902;-82
2020/12/04 05:35:55;;;;;;;10.70;8.40;;;3.20;99.90;;;;;;5033083;28;20459;-82
2020/12/04 05:38:21;;;;;;;10.43;8.63;;;3.30;99.90;;;;;;5032797;28;20177;-85
2020/12/04 05:40:49;;;;;;;9.13;7.57;;;3.30;99.90;;;;;;5035889;28;20180;-84
2020/12/04 05:43:28;;;;;;;10.87;7.37;;;3.30;99.90;;;;;;5037711;28;20179;-85
2020/12/04 05:46:17;;;;;;;9.30;8.30;;;3.30;99.90;;;;;;5036241;28;20430;-82
2020/12/04 05:48:54;;;;;;;10.67;8.67;;;3.60;99.90;;;;;;5035069;28;20408;-83
2020/12/04 05:51:22;;;;;;;11.37;8.00;;;3.50;99.90;;;;;;5035697;28;20485;-83
2020/12/04 05:53:50;;;;;;;9.37;7.87;;;3.30;99.90;;;;;;5034458;28;20911;-86
2020/12/04 05:56:16;;;;;;;11.00;7.87;;;3.30;99.90;;;;;;5035545;28;20486;-83
2020/12/04 05:58:44;;;;;;;8.90;7.27;;;3.60;99.90;;;;;;5037350;28;20915;-81
2020/12/04 06:01:09;;;;;;;10.40;6.67;;;3.60;99.90;;;;;;5036427;28;20463;-85
2020/12/04 06:03:35;;;;;;;10.17;6.03;;;3.60;99.90;;;;;;5037414;28;20446;-85
2020/12/04 06:06:04;;;;;;;10.87;8.37;;;3.30;99.90;;;;;;5037127;28;20176;-84
2020/12/04 06:08:30;;;;;;;10.30;8.80;;;3.50;99.90;;;;;;5041376;28;20645;-82
2020/12/04 06:10:56;;;;;;;11.83;8.83;;;3.40;99.90;;;;;;5036072;28;20423;-84
2020/12/04 06:13:21;;;;;;;10.20;8.57;;;3.30;99.90;;;;;;5036909;28;20787;-82
2020/12/04 06:15:47;;;;;;;8.57;7.20;;;3.30;99.90;;;;;;5036504;28;20481;-84
2020/12/04 06:18:12;;;;;;;9.10;7.93;;;2.90;99.90;;;;;;5035566;28;20177;-81
2020/12/04 06:20:45;;;;;;;7.50;5.57;;;3.30;99.90;;;;;;5035818;28;20189;-83
2020/12/04 06:23:12;;;;;;;11.10;8.23;;;3.50;99.90;;;;;;5035838;28;20181;-84
2020/12/04 06:25:53;;;;;;;15.53;10.37;;;3.70;99.90;;;;;;5035824;28;20419;-83
2020/12/04 06:28:21;;;;;;;5.07;4.57;;;3.60;99.90;;;;;;5035477;28;20480;-82
2020/12/04 06:30:58;;;;;;;9.80;4.90;;;3.90;99.90;;;;;;5039158;28;20411;-84
2020/12/04 06:33:46;;;;;;;4.93;4.33;;;3.80;99.90;;;;;;5036643;28;20425;-83
2020/12/04 06:36:33;;;;;;;7.57;5.40;;;4.20;99.90;;;;;;5036682;28;20469;-83
2020/12/04 06:39:00;;;;;;;10.60;7.50;;;4.00;99.90;;;;;;5036377;28;20430;-85
2020/12/04 06:41:29;;;;;;;6.53;4.93;;;4.30;99.90;;;;;;5036810;28;20418;-82
2020/12/04 06:44:00;;;;;;;5.53;4.67;;;4.30;99.90;;;;;;5035724;28;20415;-83
2020/12/04 06:46:30;;;;;;;4.90;4.17;;;4.30;99.90;;;;;;5037541;28;20411;-84
2020/12/04 06:49:22;;;;;;;9.10;5.47;;;4.40;99.90;;;;;;5036758;28;20516;-86
2020/12/04 06:51:58;;;;;;;4.73;3.70;;;4.40;99.90;;;;;;5037626;28;20415;-84
2020/12/04 06:54:25;;;;;;;9.93;8.37;;;4.20;99.90;;;;;;5036459;28;20763;-84
2020/12/04 06:56:50;;;;;;;5.80;5.27;;;4.30;99.90;;;;;;5036091;28;20478;-83
2020/12/04 06:59:30;;;;;;;5.03;4.53;;;4.20;99.90;;;;;;5035548;28;20514;-84
2020/12/04 07:02:04;;;;;;;5.90;4.63;;;4.20;99.90;;;;;;5026315;28;20278;-84
2020/12/04 07:04:31;;;;;;;4.93;4.53;;;4.30;99.90;;;;;;5033325;28;20420;-83
2020/12/04 07:07:04;;;;;;;5.60;4.67;;;4.40;99.90;;;;;;5036122;28;20430;-83
2020/12/04 07:09:30;;;;;;;6.40;4.87;;;4.30;99.90;;;;;;5035801;28;20510;-84
2020/12/04 07:12:00;;;;;;;11.43;5.37;;;4.50;99.90;;;;;;5033684;28;20514;-84
2020/12/04 07:14:26;;;;;;;6.63;5.47;;;4.40;99.90;;;;;;5033994;28;20290;-83
2020/12/04 07:16:53;;;;;;;5.60;5.10;;;4.30;99.90;;;;;;5036058;28;21062;-87
2020/12/04 07:19:19;;;;;;;8.40;5.50;;;4.20;99.90;;;;;;5034903;28;20783;-82
2020/12/04 07:21:44;;;;;;;6.10;5.50;;;4.30;99.90;;;;;;5034277;28;20748;-83
2020/12/04 07:24:10;;;;;;;6.00;5.27;;;3.80;99.90;;;;;;5036373;28;20269;-83
2020/12/04 07:26:36;;;;;;;7.83;6.33;;;4.20;99.90;;;;;;5035452;28;20198;-84
2020/12/04 07:29:02;;;;;;;6.67;5.93;;;4.30;99.90;;;;;;5074776;28;20184;-83
2020/12/04 07:31:28;;;;;;;7.37;6.43;;;4.00;99.90;;;;;;5055774;28;20945;-84
2020/12/04 07:33:57;;;;;;;8.73;6.90;;;4.30;99.90;;;;;;5054675;28;20415;-85
2020/12/04 07:36:24;;;;;;;8.87;6.90;;;4.40;99.90;;;;;;5056053;28;20219;-83
2020/12/04 07:38:51;;;;;;;10.17;7.57;;;4.50;99.90;;;;;;5053992;28;20905;-84
2020/12/04 07:41:25;;;;;;;9.67;7.17;;;4.10;99.90;;;;;;5058099;28;20426;-83
2020/12/04 07:43:50;;;;;;;8.60;6.47;;;4.30;99.90;;;;;;5054897;28;20425;-83
2020/12/04 07:46:19;;;;;;;7.50;5.93;;;4.00;99.90;;;;;;5053575;28;20446;-84
2020/12/04 07:49:04;;;;;;;8.37;6.20;;;4.30;99.90;;;;;;5052967;28;20975;-83
2020/12/04 07:51:32;;;;;;;6.80;6.00;;;4.40;99.90;;;;;;5055911;28;20414;-84
2020/12/04 07:53:59;;;;;;;5.90;5.20;;;4.20;99.90;;;;;;5055331;28;20406;-84
2020/12/04 07:56:28;;;;;;;7.73;6.23;;;4.00;99.90;;;;;;5053263;28;20508;-84
2020/12/04 07:59:08;;;;;;;8.27;6.53;;;4.40;99.90;;;;;;5054755;28;20425;-82
2020/12/04 08:01:40;;;;;;;8.83;7.90;;;4.00;99.90;;;;;;5055220;28;20865;-83
2020/12/04 08:04:08;;;;;;;6.93;5.73;;;4.40;99.90;;;;;;5058612;28;20744;-84
2020/12/04 08:06:34;;;;;;;11.37;7.33;;;4.00;99.90;;;;;;5059142;28;20460;-86
2020/12/04 08:09:15;;;;;;;7.40;6.70;;;4.50;99.90;;;;;;5057784;28;20450;-83
2020/12/04 08:11:52;;;;;;;10.40;6.03;;;4.60;99.90;;;;;;5055817;28;20290;-84
2020/12/04 08:14:26;;;;;;;9.53;7.30;;;4.70;99.90;;;;;;5054892;28;20410;-84
2020/12/04 08:16:56;;;;;;;9.43;7.17;;;4.60;99.90;;;;;;5054106;28;20484;-85
2020/12/04 08:19:30;;;;;;;9.20;7.13;;;4.50;99.90;;;;;;5053472;28;20560;-84
2020/12/04 08:22:08;;;;;;;10.73;7.57;;;4.50;99.90;;;;;;5054232;28;20490;-83
2020/12/04 08:24:49;;;;;;;13.10;7.47;;;4.60;99.90;;;;;;5055449;28;20403;-82
2020/12/04 08:27:15;;;;;;;11.90;7.40;;;4.50;99.90;;;;;;5054600;28;20476;-82
2020/12/04 08:29:42;;;;;;;11.43;7.97;;;4.40;99.90;;;;;;5053764;28;20410;-82
2020/12/04 08:32:21;;;;;;;8.00;6.60;;;4.40;99.90;;;;;;5053698;28;20168;-84
2020/12/04 08:34:48;;;;;;;8.13;7.23;;;4.40;99.90;;;;;;5055248;28;20834;-88
2020/12/04 08:37:16;;;;;;;6.90;6.07;;;4.40;99.90;;;;;;5054967;28;20443;-84
2020/12/04 08:39:50;;;;;;;8.80;6.40;;;4.50;99.90;;;;;;5055688;28;20496;-83
2020/12/04 08:42:17;;;;;;;8.70;6.73;;;4.40;99.90;;;;;;5054617;28;20406;-83
2020/12/04 08:45:09;;;;;;;9.47;6.30;;;4.50;99.90;;;;;;5052333;28;20427;-83
2020/12/04 08:47:39;;;;;;;7.10;6.33;;;4.50;99.90;;;;;;5048140;28;20414;-84
2020/12/04 08:50:23;;;;;;;7.07;5.77;;;4.50;99.90;;;;;;5054219;28;20510;-84
2020/12/04 08:52:54;;;;;;;14.23;6.70;;;4.60;99.90;;;;;;5053997;28;20798;-85
2020/12/04 08:55:22;;;;;;;7.07;6.37;;;4.60;99.90;;;;;;5053709;28;20454;-84
2020/12/04 08:57:51;;;;;;;11.20;6.50;;;4.70;99.90;;;;;;5053470;28;20474;-84
2020/12/04 09:00:32;;;;;;;10.70;7.10;;;4.70;99.90;;;;;;5053604;28;20522;-84
2020/12/04 09:02:58;;;;;;;12.43;8.70;;;4.80;99.90;;;;;;5053781;28;20410;-84
2020/12/04 09:05:24;;;;;;;14.87;7.17;;;4.80;99.90;;;;;;5053683;28;20952;-83
2020/12/04 09:07:49;;;;;;;8.47;6.73;;;5.00;99.90;;;;;;5056340;28;20248;-82
2020/12/04 09:10:17;;;;;;;7.80;6.40;;;5.10;99.90;;;;;;5052746;28;20524;-85
2020/12/04 09:12:44;;;;;;;19.23;9.53;;;5.10;99.90;;;;;;5054238;28;20172;-82
2020/12/04 09:15:12;;;;;;;14.50;12.63;;;4.70;99.90;;;;;;5053932;28;20489;-85
2020/12/04 09:17:38;;;;;;;9.00;6.37;;;5.00;99.90;;;;;;5052408;28;20445;-85
2020/12/04 09:20:06;;;;;;;7.80;6.47;;;5.00;99.90;;;;;;5053661;28;20506;-83
2020/12/04 09:22:32;;;;;;;8.77;6.77;;;5.00;99.90;;;;;;5052522;28;20465;-85
2020/12/04 09:24:59;;;;;;;11.40;8.13;;;4.90;99.90;;;;;;5054466;28;20418;-84
2020/12/04 09:27:25;;;;;;;12.43;10.10;;;5.00;99.90;;;;;;5053769;28;20171;-89
2020/12/04 09:29:51;;;;;;;9.43;6.20;;;5.10;99.90;;;;;;5052660;28;20411;-84
2020/12/04 09:32:17;;;;;;;18.23;8.37;;;5.10;99.90;;;;;;5053228;28;20662;-84
2020/12/04 09:34:47;;;;;;;39.87;10.03;;;5.30;99.90;;;;;;5054051;28;20207;-84
2020/12/04 09:37:18;;;;;;;58.40;12.37;;;5.40;99.90;;;;;;5053404;28;20786;-82
2020/12/04 09:39:46;;;;;;;8.23;6.93;;;5.60;99.90;;;;;;5051919;28;20477;-84
2020/12/04 09:42:13;;;;;;;9.80;8.63;;;5.60;99.90;;;;;;5051776;28;20430;-84
2020/12/04 09:44:40;;;;;;;12.27;10.10;;;5.70;99.90;;;;;;5053477;28;20510;-84
2020/12/04 09:47:06;;;;;;;25.03;10.50;;;5.70;99.90;;;;;;5052061;28;20426;-81
2020/12/04 09:49:32;;;;;;;13.07;7.77;;;5.80;99.90;;;;;;5054651;28;20910;-82
2020/12/04 09:51:58;;;;;;;10.27;7.10;;;5.90;99.90;;;;;;5053784;28;20518;-86
2020/12/04 09:54:26;;;;;;;9.03;6.77;;;5.90;99.90;;;;;;5053481;28;20175;-84
2020/12/04 09:56:53;;;;;;;20.37;8.10;;;5.70;99.90;;;;;;5051739;28;20482;-84
2020/12/04 09:59:19;;;;;;;42.00;10.50;;;5.50;99.90;;;;;;5054094;28;20418;-81
2020/12/04 10:01:47;;;;;;;31.43;10.47;;;5.50;99.90;;;;;;5053024;28;20429;-84
2020/12/04 10:04:13;;;;;;;11.97;8.13;;;5.50;99.90;;;;;;5053537;28;20632;-84
2020/12/04 10:06:39;;;;;;;8.90;8.00;;;5.40;99.90;;;;;;5052974;28;20964;-84
2020/12/04 10:09:04;;;;;;;10.07;8.30;;;5.40;99.90;;;;;;5051791;28;20272;-84
2020/12/04 10:11:30;;;;;;;16.07;8.30;;;5.40;99.90;;;;;;5052986;28;20539;-84
2020/12/04 10:13:55;;;;;;;11.23;7.40;;;5.30;99.90;;;;;;5052467;28;20512;-81
2020/12/04 10:16:21;;;;;;;49.10;12.43;;;5.40;99.90;;;;;;5053266;28;20218;-85
2020/12/04 10:18:46;;;;;;;19.87;9.43;;;5.40;99.90;;;;;;5051825;28;20577;-83
2020/12/04 10:21:12;;;;;;;13.53;9.10;;;5.20;99.90;;;;;;5053330;28;20176;-86
2020/12/04 10:23:37;;;;;;;17.37;10.13;;;5.20;99.90;;;;;;5053558;28;20631;-84
2020/12/04 10:26:03;;;;;;;16.03;9.10;;;5.10;99.90;;;;;;5052978;28;20172;-83
2020/12/04 10:28:32;;;;;;;13.47;10.10;;;5.10;99.90;;;;;;5052566;28;20176;-84
2020/12/04 10:31:00;;;;;;;13.47;10.60;;;5.10;99.90;;;;;;5052711;28;20168;-84
2020/12/04 10:33:26;;;;;;;12.03;9.90;;;5.00;99.90;;;;;;5053938;28;20406;-86
2020/12/04 10:35:51;;;;;;;102.73;24.50;;;4.60;99.90;;;;;;5061457;28;20989;-84
2020/12/04 10:38:17;;;;;;;19.10;11.73;;;5.20;99.90;;;;;;5054555;28;20190;-86
2020/12/04 10:40:43;;;;;;;38.93;17.33;;;5.10;99.90;;;;;;5053275;28;20570;-83
2020/12/04 10:43:08;;;;;;;19.20;13.70;;;4.90;99.90;;;;;;5055866;28;20172;-83
2020/12/04 10:45:34;;;;;;;31.97;14.33;;;4.80;99.90;;;;;;5055209;28;20178;-84
2020/12/04 10:48:00;;;;;;;33.00;13.47;;;4.80;99.90;;;;;;5055255;28;20176;-89
2020/12/04 10:50:25;;;;;;;15.23;10.63;;;4.80;99.90;;;;;;5056136;28;20236;-83
2020/12/04 10:52:51;;;;;;;30.47;12.17;;;4.70;99.90;;;;;;5056708;28;20194;-85
2020/12/04 10:55:16;;;;;;;17.47;12.13;;;4.70;99.90;;;;;;5057319;28;20233;-80
2020/12/04 10:57:42;;;;;;;20.73;12.10;;;4.40;99.90;;;;;;5055676;28;20254;-81
2020/12/04 11:00:08;;;;;;;14.27;11.57;;;4.60;99.90;;;;;;5056136;28;20207;-84
2020/12/04 11:02:36;;;;;;;24.03;13.00;;;4.60;99.90;;;;;;5056344;28;20414;-83
2020/12/04 11:07:46;;;;;;;24.40;13.07;;;4.50;99.90;;;;;;5056045;28;20921;-84
2020/12/04 11:10:12;;;;;;;19.03;11.80;;;4.20;99.90;;;;;;5054484;28;20415;-85
2020/12/04 11:12:37;;;;;;;16.83;10.77;;;4.10;99.90;;;;;;5055607;28;20179;-78
2020/12/04 11:15:03;;;;;;;23.03;13.07;;;4.60;99.90;;;;;;5054386;28;20168;-84
2020/12/04 11:17:29;;;;;;;18.00;10.67;;;4.50;99.90;;;;;;5056182;28;20172;-83
2020/12/04 11:19:54;;;;;;;27.67;13.40;;;4.50;99.90;;;;;;5060613;28;20423;-83
2020/12/04 11:22:20;;;;;;;27.67;13.37;;;4.60;99.90;;;;;;5055194;28;20172;-83
2020/12/04 11:24:46;;;;;;;21.77;13.63;;;4.40;99.90;;;;;;5055208;28;20210;-84
2020/12/04 11:27:12;;;;;;;23.93;14.50;;;4.60;99.90;;;;;;5055095;28;20259;-84
2020/12/04 11:29:39;;;;;;;30.50;12.63;;;4.80;99.90;;;;;;5054012;28;20238;-83
2020/12/04 11:32:04;;;;;;;22.50;13.17;;;4.70;99.90;;;;;;5055470;28;20902;-82
2020/12/04 11:34:30;;;;;;;44.40;18.23;;;4.80;99.90;;;;;;5053758;28;20468;-83
2020/12/04 11:36:55;;;;;;;31.03;14.87;;;4.80;99.90;;;;;;5055342;28;20628;-83
2020/12/04 11:39:21;;;;;;;33.93;14.77;;;4.90;99.90;;;;;;5055617;28;20187;-84
2020/12/04 11:41:48;;;;;;;18.53;11.97;;;5.00;99.90;;;;;;5055972;28;20200;-84
2020/12/04 11:44:14;;;;;;;23.60;11.37;;;5.10;99.90;;;;;;5055030;28;20160;-86
2020/12/04 11:46:40;;;;;;;16.43;11.13;;;5.20;99.90;;;;;;5054412;28;20414;-84
2020/12/04 11:49:05;;;;;;;20.00;10.37;;;5.10;99.90;;;;;;5053977;28;20488;-82
2020/12/04 11:51:31;;;;;;;15.07;13.47;;;5.10;99.90;;;;;;5055132;28;20183;-84
2020/12/04 11:53:56;;;;;;;33.27;13.67;;;5.00;99.90;;;;;;5054188;28;20171;-85
2020/12/04 11:56:22;;;;;;;20.87;11.43;;;4.90;99.90;;;;;;5053624;28;20235;-83
2020/12/04 11:58:47;;;;;;;14.63;10.53;;;4.90;99.90;;;;;;5055538;28;20293;-84
2020/12/04 12:01:13;;;;;;;13.40;10.03;;;4.80;99.90;;;;;;5053979;28;20229;-84
2020/12/04 12:03:39;;;;;;;27.23;13.37;;;4.40;99.90;;;;;;5053590;28;20639;-82
2020/12/04 12:06:05;;;;;;;25.77;12.67;;;4.40;99.90;;;;;;5055359;28;20769;-86
2020/12/04 12:08:30;;;;;;;23.93;12.43;;;4.70;99.90;;;;;;5054646;28;20172;-84
2020/12/04 12:10:56;;;;;;;20.70;13.13;;;4.60;99.90;;;;;;5055275;28;20207;-85
2020/12/04 12:13:22;;;;;;;24.83;15.70;;;4.70;99.90;;;;;;5036852;28;20180;-85
2020/12/04 12:15:48;;;;;;;24.27;15.47;;;4.80;99.90;;;;;;5034293;28;20278;-84
2020/12/04 12:18:14;;;;;;;61.90;18.87;;;4.40;99.90;;;;;;5039531;28;20907;-83
2020/12/04 12:20:39;;;;;;;47.33;16.20;;;4.80;99.90;;;;;;5034492;28;20388;-86
2020/12/04 12:23:05;;;;;;;33.67;16.20;;;4.80;99.90;;;;;;5034168;28;20176;-85
2020/12/04 12:25:30;;;;;;;43.50;18.50;;;4.90;99.90;;;;;;5033333;28;20661;-84
2020/12/04 12:27:57;;;;;;;25.33;15.77;;;4.90;99.90;;;;;;5035415;28;20168;-84
2020/12/04 12:30:22;;;;;;;46.13;16.10;;;4.90;99.90;;;;;;5033879;28;20632;-87
2020/12/04 12:32:48;;;;;;;27.80;16.33;;;5.00;99.90;;;;;;5037184;28;20411;-81
2020/12/04 12:35:13;;;;;;;28.27;13.90;;;5.00;99.90;;;;;;5036083;28;20285;-83
2020/12/04 12:37:42;;;;;;;20.10;16.90;;;5.00;99.90;;;;;;5034718;28;20550;-88
2020/12/04 12:40:10;;;;;;;26.83;13.80;;;5.10;99.90;;;;;;5033556;28;20195;-83
2020/12/04 12:42:36;;;;;;;24.23;15.13;;;5.20;99.90;;;;;;5034470;28;20763;-84
2020/12/04 12:45:02;;;;;;;21.43;14.93;;;5.20;99.90;;;;;;5034136;28;20423;-85
2020/12/04 12:47:28;;;;;;;23.47;13.43;;;5.00;99.90;;;;;;5034887;28;20931;-84
2020/12/04 12:49:53;;;;;;;25.23;14.40;;;4.90;99.90;;;;;;5034253;28;20419;-84